sensor_id;sensor_type;location;lat;lon;timestamp;noise_LAeq;noise_LA_min;noise_LA_max;noise_LA01;noise_LA95
74260;Laerm;62630;55.874;37.516;2022-09-09T00:00:46;58.18;47.38;73.90;;
74260;Laerm;62630;55.874;37.516;2022-09-09T00:09:47;55.68;48.02;69.06;;
74260;Laerm;62630;55.874;37.516;2022-09-09T00:12:25;55.52;48.29;72.92;;
74260;Laerm;62630;55.874;37.516;2022-09-09T00:15:14;52.84;47.22;60.76;;
74260;Laerm;62630;55.874;37.516;2022-09-09T00:22:55;51.41;47.05;60.21;;
74260;Laerm;62630;55.874;37.516;2022-09-09T00:25:31;54.39;47.92;69.71;;
74260;Laerm;62630;55.874;37.516;2022-09-09T00:28:00;51.25;46.93;61.38;;
74260;Laerm;62630;55.874;37.516;2022-09-09T00:30:34;51.30;46.78;60.10;;
74260;Laerm;62630;55.874;37.516;2022-09-09T00:33:03;51.63;47.24;61.35;;
74260;Laerm;62630;55.874;37.516;2022-09-09T00:35:44;50.88;47.05;59.37;;
74260;Laerm;62630;55.874;37.516;2022-09-09T00:41:22;52.41;47.47;62.39;;
74260;Laerm;62630;55.874;37.516;2022-09-09T00:49:39;55.18;47.84;70.38;;
74260;Laerm;62630;55.874;37.516;2022-09-09T00:52:22;51.12;47.20;55.92;;
74260;Laerm;62630;55.874;37.516;2022-09-09T00:55:04;53.75;47.18;66.58;;
74260;Laerm;62630;55.874;37.516;2022-09-09T00:57:33;56.26;47.60;69.99;;
74260;Laerm;62630;55.874;37.516;2022-09-09T01:00:22;51.18;46.79;56.87;;
74260;Laerm;62630;55.874;37.516;2022-09-09T01:08:01;56.27;46.44;71.76;;
74260;Laerm;62630;55.874;37.516;2022-09-09T01:10:47;52.40;47.52;61.51;;
74260;Laerm;62630;55.874;37.516;2022-09-09T01:13:23;58.26;48.43;70.87;;
74260;Laerm;62630;55.874;37.516;2022-09-09T01:15:50;52.93;47.18;62.63;;
74260;Laerm;62630;55.874;37.516;2022-09-09T01:18:21;52.51;46.94;62.00;;
74260;Laerm;62630;55.874;37.516;2022-09-09T01:24:15;53.21;47.07;65.56;;
74260;Laerm;62630;55.874;37.516;2022-09-09T01:26:44;56.18;47.81;71.57;;
74260;Laerm;62630;55.874;37.516;2022-09-09T01:29:18;55.45;47.34;68.14;;
74260;Laerm;62630;55.874;37.516;2022-09-09T01:31:59;51.36;46.99;66.45;;
74260;Laerm;62630;55.874;37.516;2022-09-09T01:34:38;61.76;49.08;79.08;;
74260;Laerm;62630;55.874;37.516;2022-09-09T01:37:05;55.54;47.30;73.55;;
74260;Laerm;62630;55.874;37.516;2022-09-09T01:39:33;52.83;46.73;66.17;;
74260;Laerm;62630;55.874;37.516;2022-09-09T01:42:00;64.20;48.19;84.77;;
74260;Laerm;62630;55.874;37.516;2022-09-09T01:44:27;56.02;47.72;73.32;;
74260;Laerm;62630;55.874;37.516;2022-09-09T01:46:53;57.43;47.54;71.49;;
74260;Laerm;62630;55.874;37.516;2022-09-09T01:49:19;64.88;48.08;80.27;;
74260;Laerm;62630;55.874;37.516;2022-09-09T01:51:46;58.84;48.41;70.83;;
74260;Laerm;62630;55.874;37.516;2022-09-09T01:54:13;53.40;46.79;66.71;;
74260;Laerm;62630;55.874;37.516;2022-09-09T02:04:45;57.16;48.54;66.50;;
74260;Laerm;62630;55.874;37.516;2022-09-09T02:09:47;59.03;48.92;73.44;;
74260;Laerm;62630;55.874;37.516;2022-09-09T02:12:18;52.67;48.33;60.60;;
74260;Laerm;62630;55.874;37.516;2022-09-09T02:14:55;60.00;49.78;70.29;;
74260;Laerm;62630;55.874;37.516;2022-09-09T02:17:27;58.99;49.59;72.57;;
74260;Laerm;62630;55.874;37.516;2022-09-09T02:20:03;56.32;49.59;71.47;;
74260;Laerm;62630;55.874;37.516;2022-09-09T02:22:32;55.65;49.82;68.88;;
74260;Laerm;62630;55.874;37.516;2022-09-09T02:25:00;60.47;51.07;76.07;;
74260;Laerm;62630;55.874;37.516;2022-09-09T02:27:26;59.48;52.48;70.56;;
74260;Laerm;62630;55.874;37.516;2022-09-09T02:29:53;62.20;50.33;75.70;;
74260;Laerm;62630;55.874;37.516;2022-09-09T02:32:24;57.39;50.11;66.38;;
74260;Laerm;62630;55.874;37.516;2022-09-09T02:34:55;61.01;50.96;71.10;;
74260;Laerm;62630;55.874;37.516;2022-09-09T02:37:24;60.39;49.79;74.06;;
74260;Laerm;62630;55.874;37.516;2022-09-09T02:39:54;58.40;51.64;70.75;;
74260;Laerm;62630;55.874;37.516;2022-09-09T02:42:19;59.92;51.47;71.63;;
74260;Laerm;62630;55.874;37.516;2022-09-09T02:44:45;60.71;51.21;73.23;;
74260;Laerm;62630;55.874;37.516;2022-09-09T02:50:00;61.36;54.83;72.54;;
74260;Laerm;62630;55.874;37.516;2022-09-09T02:52:42;65.49;54.53;80.59;;
74260;Laerm;62630;55.874;37.516;2022-09-09T02:57:47;60.69;54.19;75.27;;
74260;Laerm;62630;55.874;37.516;2022-09-09T03:00:14;60.61;54.95;74.90;;
74260;Laerm;62630;55.874;37.516;2022-09-09T03:02:40;59.79;50.96;71.08;;
74260;Laerm;62630;55.874;37.516;2022-09-09T03:05:07;60.54;51.88;73.87;;
74260;Laerm;62630;55.874;37.516;2022-09-09T03:07:33;60.82;52.07;71.02;;
74260;Laerm;62630;55.874;37.516;2022-09-09T03:09:58;60.10;51.70;73.68;;
74260;Laerm;62630;55.874;37.516;2022-09-09T03:12:25;60.65;53.47;71.79;;
74260;Laerm;62630;55.874;37.516;2022-09-09T03:14:50;61.79;53.22;72.12;;
74260;Laerm;62630;55.874;37.516;2022-09-09T03:17:16;59.88;53.15;70.11;;
74260;Laerm;62630;55.874;37.516;2022-09-09T03:19:42;68.87;54.33;84.70;;
74260;Laerm;62630;55.874;37.516;2022-09-09T03:22:09;63.19;53.68;73.02;;
74260;Laerm;62630;55.874;37.516;2022-09-09T03:24:35;61.19;53.75;71.10;;
74260;Laerm;62630;55.874;37.516;2022-09-09T03:27:02;61.43;52.48;72.07;;
74260;Laerm;62630;55.874;37.516;2022-09-09T03:29:29;61.72;54.22;77.31;;
74260;Laerm;62630;55.874;37.516;2022-09-09T03:31:55;63.94;55.93;72.88;;
74260;Laerm;62630;55.874;37.516;2022-09-09T03:34:20;62.73;54.09;74.46;;
74260;Laerm;62630;55.874;37.516;2022-09-09T03:36:46;68.69;53.48;84.89;;
74260;Laerm;62630;55.874;37.516;2022-09-09T03:39:14;63.67;55.35;78.99;;
74260;Laerm;62630;55.874;37.516;2022-09-09T03:41:39;63.22;54.35;76.71;;
74260;Laerm;62630;55.874;37.516;2022-09-09T03:44:05;63.61;55.02;85.40;;
74260;Laerm;62630;55.874;37.516;2022-09-09T03:46:30;63.07;55.16;71.32;;
74260;Laerm;62630;55.874;37.516;2022-09-09T03:48:56;63.08;56.12;74.98;;
74260;Laerm;62630;55.874;37.516;2022-09-09T03:51:22;65.35;56.63;76.09;;
74260;Laerm;62630;55.874;37.516;2022-09-09T03:53:48;64.40;56.85;76.18;;
74260;Laerm;62630;55.874;37.516;2022-09-09T03:56:13;65.29;56.62;74.09;;
74260;Laerm;62630;55.874;37.516;2022-09-09T03:58:39;63.46;54.14;72.65;;
74260;Laerm;62630;55.874;37.516;2022-09-09T04:01:08;64.65;54.98;71.91;;
74260;Laerm;62630;55.874;37.516;2022-09-09T04:03:34;63.87;54.45;83.19;;
74260;Laerm;62630;55.874;37.516;2022-09-09T04:06:03;62.43;54.67;72.76;;
74260;Laerm;62630;55.874;37.516;2022-09-09T04:08:30;64.74;55.88;73.00;;
74260;Laerm;62630;55.874;37.516;2022-09-09T04:11:01;64.98;55.51;76.08;;
74260;Laerm;62630;55.874;37.516;2022-09-09T04:13:30;64.77;57.16;76.75;;
74260;Laerm;62630;55.874;37.516;2022-09-09T04:15:58;65.14;56.56;73.71;;
74260;Laerm;62630;55.874;37.516;2022-09-09T04:18:24;63.19;55.93;70.82;;
74260;Laerm;62630;55.874;37.516;2022-09-09T04:20:52;63.43;56.61;72.43;;
74260;Laerm;62630;55.874;37.516;2022-09-09T04:23:19;64.92;56.96;84.25;;
74260;Laerm;62630;55.874;37.516;2022-09-09T04:25:51;64.54;56.07;79.11;;
74260;Laerm;62630;55.874;37.516;2022-09-09T04:28:18;63.68;55.03;71.65;;
74260;Laerm;62630;55.874;37.516;2022-09-09T04:30:44;63.37;54.97;72.27;;
74260;Laerm;62630;55.874;37.516;2022-09-09T04:33:10;64.99;54.11;73.82;;
74260;Laerm;62630;55.874;37.516;2022-09-09T04:35:37;67.88;56.94;83.40;;
74260;Laerm;62630;55.874;37.516;2022-09-09T04:38:05;64.93;57.16;72.77;;
74260;Laerm;62630;55.874;37.516;2022-09-09T04:40:33;64.31;55.18;73.79;;
74260;Laerm;62630;55.874;37.516;2022-09-09T04:42:59;64.21;56.12;75.51;;
74260;Laerm;62630;55.874;37.516;2022-09-09T04:45:24;62.80;54.08;74.99;;
74260;Laerm;62630;55.874;37.516;2022-09-09T04:47:51;64.60;55.72;71.97;;
74260;Laerm;62630;55.874;37.516;2022-09-09T04:50:17;65.68;54.48;73.85;;
74260;Laerm;62630;55.874;37.516;2022-09-09T04:52:44;64.28;56.84;71.12;;
74260;Laerm;62630;55.874;37.516;2022-09-09T04:55:09;64.32;55.99;73.99;;
74260;Laerm;62630;55.874;37.516;2022-09-09T04:57:35;65.66;55.29;77.37;;
74260;Laerm;62630;55.874;37.516;2022-09-09T05:00:01;65.45;54.41;73.63;;
74260;Laerm;62630;55.874;37.516;2022-09-09T05:02:26;63.65;54.00;71.78;;
74260;Laerm;62630;55.874;37.516;2022-09-09T05:04:54;65.30;54.40;74.95;;
74260;Laerm;62630;55.874;37.516;2022-09-09T05:07:20;65.08;57.17;73.61;;
74260;Laerm;62630;55.874;37.516;2022-09-09T05:09:45;65.89;55.66;79.26;;
74260;Laerm;62630;55.874;37.516;2022-09-09T05:12:13;64.38;54.89;71.01;;
74260;Laerm;62630;55.874;37.516;2022-09-09T05:14:38;63.88;54.94;73.08;;
74260;Laerm;62630;55.874;37.516;2022-09-09T05:17:04;67.28;55.50;79.13;;
74260;Laerm;62630;55.874;37.516;2022-09-09T05:19:30;63.44;54.94;74.02;;
74260;Laerm;62630;55.874;37.516;2022-09-09T05:21:56;64.79;54.26;71.84;;
74260;Laerm;62630;55.874;37.516;2022-09-09T05:24:22;67.57;53.78;79.17;;
74260;Laerm;62630;55.874;37.516;2022-09-09T05:26:50;66.51;55.85;78.99;;
74260;Laerm;62630;55.874;37.516;2022-09-09T05:29:16;66.32;57.04;80.01;;
74260;Laerm;62630;55.874;37.516;2022-09-09T05:31:44;66.31;55.93;77.60;;
74260;Laerm;62630;55.874;37.516;2022-09-09T05:34:09;65.38;56.91;75.45;;
74260;Laerm;62630;55.874;37.516;2022-09-09T05:36:35;64.08;54.30;73.70;;
74260;Laerm;62630;55.874;37.516;2022-09-09T05:39:00;66.40;55.53;80.40;;
74260;Laerm;62630;55.874;37.516;2022-09-09T05:41:26;65.44;54.20;81.48;;
74260;Laerm;62630;55.874;37.516;2022-09-09T05:43:53;65.82;56.24;78.35;;
74260;Laerm;62630;55.874;37.516;2022-09-09T05:46:21;64.27;52.90;70.60;;
74260;Laerm;62630;55.874;37.516;2022-09-09T05:48:48;65.47;57.32;77.21;;
74260;Laerm;62630;55.874;37.516;2022-09-09T05:51:20;63.02;52.28;72.63;;
74260;Laerm;62630;55.874;37.516;2022-09-09T05:53:47;63.73;53.05;71.62;;
74260;Laerm;62630;55.874;37.516;2022-09-09T05:56:22;63.58;54.09;72.82;;
74260;Laerm;62630;55.874;37.516;2022-09-09T05:58:49;61.92;52.18;70.33;;
74260;Laerm;62630;55.874;37.516;2022-09-09T06:01:26;63.93;56.29;71.73;;
74260;Laerm;62630;55.874;37.516;2022-09-09T06:03:52;62.71;53.00;72.53;;
74260;Laerm;62630;55.874;37.516;2022-09-09T06:06:23;64.15;54.49;72.13;;
74260;Laerm;62630;55.874;37.516;2022-09-09T06:08:53;66.36;54.05;83.44;;
74260;Laerm;62630;55.874;37.516;2022-09-09T06:11:21;65.71;51.58;77.16;;
74260;Laerm;62630;55.874;37.516;2022-09-09T06:13:47;65.33;52.60;75.81;;
74260;Laerm;62630;55.874;37.516;2022-09-09T06:16:15;62.93;51.84;70.76;;
74260;Laerm;62630;55.874;37.516;2022-09-09T06:18:42;65.31;51.81;76.31;;
74260;Laerm;62630;55.874;37.516;2022-09-09T06:23:47;64.91;50.97;77.31;;
74260;Laerm;62630;55.874;37.516;2022-09-09T06:28:54;63.68;49.29;77.58;;
74260;Laerm;62630;55.874;37.516;2022-09-09T06:31:22;63.29;51.01;78.60;;
74260;Laerm;62630;55.874;37.516;2022-09-09T06:33:53;64.19;53.99;72.85;;
74260;Laerm;62630;55.874;37.516;2022-09-09T06:36:33;66.87;52.59;80.99;;
74260;Laerm;62630;55.874;37.516;2022-09-09T06:38:59;63.40;49.65;74.26;;
74260;Laerm;62630;55.874;37.516;2022-09-09T06:41:28;64.66;52.94;83.47;;
74260;Laerm;62630;55.874;37.516;2022-09-09T06:43:54;64.55;55.60;74.46;;
74260;Laerm;62630;55.874;37.516;2022-09-09T06:46:28;67.42;55.93;79.42;;
74260;Laerm;62630;55.874;37.516;2022-09-09T06:48:56;62.92;53.52;71.41;;
74260;Laerm;62630;55.874;37.516;2022-09-09T06:51:26;61.83;52.30;69.33;;
74260;Laerm;62630;55.874;37.516;2022-09-09T06:53:57;65.71;54.00;84.39;;
74260;Laerm;62630;55.874;37.516;2022-09-09T06:58:59;63.87;50.94;73.54;;
74260;Laerm;62630;55.874;37.516;2022-09-09T07:01:29;63.83;52.27;72.40;;
74260;Laerm;62630;55.874;37.516;2022-09-09T07:03:57;62.24;49.53;73.70;;
74260;Laerm;62630;55.874;37.516;2022-09-09T07:06:31;62.83;53.56;71.95;;
74260;Laerm;62630;55.874;37.516;2022-09-09T07:08:58;67.68;53.27;82.63;;
74260;Laerm;62630;55.874;37.516;2022-09-09T07:11:25;63.05;54.91;70.60;;
74260;Laerm;62630;55.874;37.516;2022-09-09T07:13:53;62.90;51.54;72.02;;
74260;Laerm;62630;55.874;37.516;2022-09-09T07:16:24;65.02;53.97;77.14;;
74260;Laerm;62630;55.874;37.516;2022-09-09T07:18:55;64.55;56.45;73.54;;
74260;Laerm;62630;55.874;37.516;2022-09-09T07:21:27;65.11;55.25;78.73;;
74260;Laerm;62630;55.874;37.516;2022-09-09T07:23:53;63.86;53.43;72.60;;
74260;Laerm;62630;55.874;37.516;2022-09-09T07:26:24;62.58;53.01;72.54;;
74260;Laerm;62630;55.874;37.516;2022-09-09T07:28:53;65.28;55.23;73.86;;
74260;Laerm;62630;55.874;37.516;2022-09-09T07:31:29;65.03;51.85;84.68;;
74260;Laerm;62630;55.874;37.516;2022-09-09T07:33:59;61.08;48.05;70.09;;
74260;Laerm;62630;55.874;37.516;2022-09-09T07:36:32;62.81;50.35;72.27;;
74260;Laerm;62630;55.874;37.516;2022-09-09T07:39:06;65.99;50.88;78.05;;
74260;Laerm;62630;55.874;37.516;2022-09-09T07:41:41;63.98;51.06;74.91;;
74260;Laerm;62630;55.874;37.516;2022-09-09T07:44:20;61.62;50.01;72.26;;
74260;Laerm;62630;55.874;37.516;2022-09-09T07:46:50;63.91;51.61;72.71;;
74260;Laerm;62630;55.874;37.516;2022-09-09T07:49:15;65.59;54.08;79.28;;
74260;Laerm;62630;55.874;37.516;2022-09-09T07:51:45;64.16;55.08;73.72;;
74260;Laerm;62630;55.874;37.516;2022-09-09T07:54:16;64.62;53.17;72.92;;
74260;Laerm;62630;55.874;37.516;2022-09-09T07:56:46;62.62;52.11;82.14;;
74260;Laerm;62630;55.874;37.516;2022-09-09T07:59:15;63.61;55.00;70.00;;
74260;Laerm;62630;55.874;37.516;2022-09-09T08:01:49;62.75;51.80;72.60;;
74260;Laerm;62630;55.874;37.516;2022-09-09T08:04:17;67.20;54.22;83.23;;
74260;Laerm;62630;55.874;37.516;2022-09-09T08:06:46;60.76;50.89;70.32;;
74260;Laerm;62630;55.874;37.516;2022-09-09T08:09:13;63.16;50.43;75.27;;
74260;Laerm;62630;55.874;37.516;2022-09-09T08:11:39;66.68;54.76;81.02;;
74260;Laerm;62630;55.874;37.516;2022-09-09T08:14:08;65.92;51.76;86.17;;
74260;Laerm;62630;55.874;37.516;2022-09-09T08:16:37;62.35;50.86;73.43;;
74260;Laerm;62630;55.874;37.516;2022-09-09T08:19:04;63.97;52.84;76.04;;
74260;Laerm;62630;55.874;37.516;2022-09-09T08:21:31;61.77;51.52;72.35;;
74260;Laerm;62630;55.874;37.516;2022-09-09T08:23:59;60.96;50.97;69.63;;
74260;Laerm;62630;55.874;37.516;2022-09-09T08:26:26;63.87;53.36;74.71;;
74260;Laerm;62630;55.874;37.516;2022-09-09T08:28:54;63.37;55.25;82.43;;
74260;Laerm;62630;55.874;37.516;2022-09-09T08:31:29;64.38;54.54;75.18;;
74260;Laerm;62630;55.874;37.516;2022-09-09T08:33:57;64.19;55.44;77.29;;
74260;Laerm;62630;55.874;37.516;2022-09-09T08:36:27;65.27;52.54;73.56;;
74260;Laerm;62630;55.874;37.516;2022-09-09T08:38:55;63.30;50.57;82.15;;
74260;Laerm;62630;55.874;37.516;2022-09-09T08:44:01;63.33;54.31;84.79;;
74260;Laerm;62630;55.874;37.516;2022-09-09T08:54:57;67.14;53.95;84.34;;
74260;Laerm;62630;55.874;37.516;2022-09-09T08:57:28;63.57;53.12;74.59;;
74260;Laerm;62630;55.874;37.516;2022-09-09T08:59:55;64.78;54.56;76.78;;
74260;Laerm;62630;55.874;37.516;2022-09-09T09:02:48;66.44;51.59;82.87;;
74260;Laerm;62630;55.874;37.516;2022-09-09T09:05:25;62.43;52.70;80.43;;
74260;Laerm;62630;55.874;37.516;2022-09-09T09:10:50;63.07;50.99;76.96;;
74260;Laerm;62630;55.874;37.516;2022-09-09T09:13:48;62.95;51.91;75.38;;
74260;Laerm;62630;55.874;37.516;2022-09-09T09:16:47;64.63;55.23;74.60;;
74260;Laerm;62630;55.874;37.516;2022-09-09T09:19:13;63.04;52.35;71.40;;
74260;Laerm;62630;55.874;37.516;2022-09-09T09:22:01;62.99;52.21;73.96;;
74260;Laerm;62630;55.874;37.516;2022-09-09T09:24:45;63.02;54.79;69.97;;
74260;Laerm;62630;55.874;37.516;2022-09-09T09:27:34;63.69;54.63;70.92;;
74260;Laerm;62630;55.874;37.516;2022-09-09T09:30:13;61.05;51.54;71.41;;
74260;Laerm;62630;55.874;37.516;2022-09-09T09:32:52;61.50;51.32;72.38;;
74260;Laerm;62630;55.874;37.516;2022-09-09T09:35:19;66.93;52.24;78.07;;
74260;Laerm;62630;55.874;37.516;2022-09-09T09:37:45;64.46;53.10;72.91;;
74260;Laerm;62630;55.874;37.516;2022-09-09T09:40:19;64.98;50.32;75.99;;
74260;Laerm;62630;55.874;37.516;2022-09-09T09:43:05;62.87;50.09;76.48;;
74260;Laerm;62630;55.874;37.516;2022-09-09T09:45:43;64.10;52.69;80.07;;
74260;Laerm;62630;55.874;37.516;2022-09-09T09:48:13;63.68;52.35;79.35;;
74260;Laerm;62630;55.874;37.516;2022-09-09T09:51:03;62.28;50.96;70.23;;
74260;Laerm;62630;55.874;37.516;2022-09-09T09:53:34;62.47;53.76;70.17;;
74260;Laerm;62630;55.874;37.516;2022-09-09T09:56:04;65.83;54.23;78.98;;
74260;Laerm;62630;55.874;37.516;2022-09-09T09:58:37;63.97;53.95;76.34;;
74260;Laerm;62630;55.874;37.516;2022-09-09T10:03:55;63.89;52.41;72.34;;
74260;Laerm;62630;55.874;37.516;2022-09-09T10:06:35;66.16;53.55;93.28;;
74260;Laerm;62630;55.874;37.516;2022-09-09T10:09:03;67.15;56.25;81.29;;
74260;Laerm;62630;55.874;37.516;2022-09-09T10:12:01;64.11;52.84;75.88;;
74260;Laerm;62630;55.874;37.516;2022-09-09T10:17:25;65.51;53.01;74.71;;
74260;Laerm;62630;55.874;37.516;2022-09-09T10:22:52;62.91;50.54;72.27;;
74260;Laerm;62630;55.874;37.516;2022-09-09T10:33:28;64.06;51.81;75.83;;
74260;Laerm;62630;55.874;37.516;2022-09-09T10:36:17;63.58;51.52;80.03;;
74260;Laerm;62630;55.874;37.516;2022-09-09T10:38:47;63.73;55.50;73.31;;
74260;Laerm;62630;55.874;37.516;2022-09-09T10:47:20;63.28;51.95;70.48;;
74260;Laerm;62630;55.874;37.516;2022-09-09T10:53:17;61.13;49.73;71.46;;
74260;Laerm;62630;55.874;37.516;2022-09-09T10:55:55;63.84;52.64;81.92;;
74260;Laerm;62630;55.874;37.516;2022-09-09T10:58:46;63.96;52.20;82.48;;
74260;Laerm;62630;55.874;37.516;2022-09-09T11:01:22;63.66;52.05;76.02;;
74260;Laerm;62630;55.874;37.516;2022-09-09T11:03:54;63.24;51.93;76.95;;
74260;Laerm;62630;55.874;37.516;2022-09-09T11:06:32;63.72;52.56;73.24;;
74260;Laerm;62630;55.874;37.516;2022-09-09T11:09:02;68.07;51.19;85.30;;
74260;Laerm;62630;55.874;37.516;2022-09-09T11:11:42;63.82;49.11;71.86;;
74260;Laerm;62630;55.874;37.516;2022-09-09T11:14:32;64.16;52.35;78.07;;
74260;Laerm;62630;55.874;37.516;2022-09-09T11:17:05;63.44;54.30;73.43;;
74260;Laerm;62630;55.874;37.516;2022-09-09T11:19:36;67.57;53.16;79.24;;
74260;Laerm;62630;55.874;37.516;2022-09-09T11:25:15;66.86;54.57;80.47;;
74260;Laerm;62630;55.874;37.516;2022-09-09T11:33:49;64.14;54.52;76.80;;
74260;Laerm;62630;55.874;37.516;2022-09-09T11:42:20;64.01;55.22;73.60;;
74260;Laerm;62630;55.874;37.516;2022-09-09T11:44:49;63.84;53.57;72.67;;
74260;Laerm;62630;55.874;37.516;2022-09-09T11:49:49;63.57;51.82;75.99;;
74260;Laerm;62630;55.874;37.516;2022-09-09T11:52:38;63.21;53.24;70.77;;
74260;Laerm;62630;55.874;37.516;2022-09-09T11:55:31;63.51;51.34;74.51;;
74260;Laerm;62630;55.874;37.516;2022-09-09T11:58:16;68.16;56.70;88.25;;
74260;Laerm;62630;55.874;37.516;2022-09-09T12:00:50;64.08;54.11;74.36;;
74260;Laerm;62630;55.874;37.516;2022-09-09T12:06:52;63.10;53.10;72.41;;
74260;Laerm;62630;55.874;37.516;2022-09-09T12:09:29;64.63;55.13;73.33;;
74260;Laerm;62630;55.874;37.516;2022-09-09T12:12:22;63.53;53.96;74.88;;
74260;Laerm;62630;55.874;37.516;2022-09-09T12:17:25;64.20;52.68;74.68;;
74260;Laerm;62630;55.874;37.516;2022-09-09T12:20:26;67.70;51.21;84.66;;
74260;Laerm;62630;55.874;37.516;2022-09-09T12:29:32;62.18;52.53;71.95;;
74260;Laerm;62630;55.874;37.516;2022-09-09T12:32:10;62.40;53.89;70.72;;
74260;Laerm;62630;55.874;37.516;2022-09-09T12:34:41;63.92;50.50;75.94;;
74260;Laerm;62630;55.874;37.516;2022-09-09T12:37:38;63.80;51.46;72.87;;
74260;Laerm;62630;55.874;37.516;2022-09-09T12:40:06;63.18;54.08;73.57;;
74260;Laerm;62630;55.874;37.516;2022-09-09T12:42:43;65.19;52.51;76.44;;
74260;Laerm;62630;55.874;37.516;2022-09-09T12:45:22;67.01;55.29;89.16;;
74260;Laerm;62630;55.874;37.516;2022-09-09T12:47:56;63.92;53.46;75.08;;
74260;Laerm;62630;55.874;37.516;2022-09-09T12:50:33;66.74;52.96;82.82;;
74260;Laerm;62630;55.874;37.516;2022-09-09T12:53:35;64.87;51.97;80.44;;
74260;Laerm;62630;55.874;37.516;2022-09-09T12:56:19;65.05;53.28;78.27;;
74260;Laerm;62630;55.874;37.516;2022-09-09T12:58:53;62.60;50.25;71.59;;
74260;Laerm;62630;55.874;37.516;2022-09-09T13:01:26;65.04;53.27;75.04;;
74260;Laerm;62630;55.874;37.516;2022-09-09T13:03:52;62.90;51.36;72.74;;
74260;Laerm;62630;55.874;37.516;2022-09-09T13:06:22;64.67;55.37;75.71;;
74260;Laerm;62630;55.874;37.516;2022-09-09T13:08:51;62.44;51.30;70.99;;
74260;Laerm;62630;55.874;37.516;2022-09-09T13:11:24;64.92;52.42;77.06;;
74260;Laerm;62630;55.874;37.516;2022-09-09T13:13:53;65.19;51.11;88.53;;
74260;Laerm;62630;55.874;37.516;2022-09-09T13:16:34;64.32;55.06;71.96;;
74260;Laerm;62630;55.874;37.516;2022-09-09T13:19:07;63.35;54.96;73.77;;
74260;Laerm;62630;55.874;37.516;2022-09-09T13:21:38;62.90;53.37;71.03;;
74260;Laerm;62630;55.874;37.516;2022-09-09T13:24:31;65.07;54.04;74.05;;
74260;Laerm;62630;55.874;37.516;2022-09-09T13:27:02;63.00;53.90;69.68;;
74260;Laerm;62630;55.874;37.516;2022-09-09T13:29:29;64.36;51.76;76.67;;
74260;Laerm;62630;55.874;37.516;2022-09-09T13:32:23;65.18;56.52;81.11;;
74260;Laerm;62630;55.874;37.516;2022-09-09T13:34:55;71.97;55.93;90.03;;
74260;Laerm;62630;55.874;37.516;2022-09-09T13:37:36;67.17;53.56;81.73;;
74260;Laerm;62630;55.874;37.516;2022-09-09T13:40:04;63.09;52.20;71.91;;
74260;Laerm;62630;55.874;37.516;2022-09-09T13:42:37;61.20;51.02;72.47;;
74260;Laerm;62630;55.874;37.516;2022-09-09T13:45:23;66.08;53.47;88.69;;
74260;Laerm;62630;55.874;37.516;2022-09-09T13:47:49;63.75;55.26;72.36;;
74260;Laerm;62630;55.874;37.516;2022-09-09T13:50:27;64.74;54.82;76.64;;
74260;Laerm;62630;55.874;37.516;2022-09-09T13:52:55;62.77;53.48;71.70;;
74260;Laerm;62630;55.874;37.516;2022-09-09T13:55:27;67.89;53.16;84.18;;
74260;Laerm;62630;55.874;37.516;2022-09-09T13:57:57;64.50;52.03;84.51;;
74260;Laerm;62630;55.874;37.516;2022-09-09T14:00:24;63.15;55.10;70.58;;
74260;Laerm;62630;55.874;37.516;2022-09-09T14:02:53;65.51;53.05;79.12;;
74260;Laerm;62630;55.874;37.516;2022-09-09T14:05:23;64.27;53.25;78.05;;
74260;Laerm;62630;55.874;37.516;2022-09-09T14:07:49;62.94;54.17;80.62;;
74260;Laerm;62630;55.874;37.516;2022-09-09T14:10:15;63.20;55.15;74.48;;
74260;Laerm;62630;55.874;37.516;2022-09-09T14:12:41;63.20;55.19;73.43;;
74260;Laerm;62630;55.874;37.516;2022-09-09T14:15:09;66.13;57.22;79.59;;
74260;Laerm;62630;55.874;37.516;2022-09-09T14:17:35;63.16;52.33;77.39;;
74260;Laerm;62630;55.874;37.516;2022-09-09T14:20:03;62.62;54.26;74.16;;
74260;Laerm;62630;55.874;37.516;2022-09-09T14:22:33;65.17;53.60;82.70;;
74260;Laerm;62630;55.874;37.516;2022-09-09T14:24:58;62.99;52.26;72.98;;
74260;Laerm;62630;55.874;37.516;2022-09-09T14:27:24;64.53;53.99;75.86;;
74260;Laerm;62630;55.874;37.516;2022-09-09T14:29:51;66.81;58.51;75.15;;
74260;Laerm;62630;55.874;37.516;2022-09-09T14:32:19;64.66;55.74;74.06;;
74260;Laerm;62630;55.874;37.516;2022-09-09T14:34:46;63.90;54.04;71.67;;
74260;Laerm;62630;55.874;37.516;2022-09-09T14:37:18;64.90;52.44;75.80;;
74260;Laerm;62630;55.874;37.516;2022-09-09T14:39:44;63.16;52.09;71.39;;
74260;Laerm;62630;55.874;37.516;2022-09-09T14:42:10;64.34;55.15;71.25;;
74260;Laerm;62630;55.874;37.516;2022-09-09T14:44:39;62.90;53.41;72.12;;
74260;Laerm;62630;55.874;37.516;2022-09-09T14:47:08;66.39;59.40;76.69;;
74260;Laerm;62630;55.874;37.516;2022-09-09T14:49:34;63.11;53.10;74.14;;
74260;Laerm;62630;55.874;37.516;2022-09-09T14:52:01;65.38;55.64;73.10;;
74260;Laerm;62630;55.874;37.516;2022-09-09T14:54:26;65.81;54.00;81.66;;
74260;Laerm;62630;55.874;37.516;2022-09-09T14:56:53;61.92;52.43;73.15;;
74260;Laerm;62630;55.874;37.516;2022-09-09T14:59:21;64.48;53.54;79.79;;
74260;Laerm;62630;55.874;37.516;2022-09-09T15:01:47;62.87;50.80;75.44;;
74260;Laerm;62630;55.874;37.516;2022-09-09T15:04:14;64.09;52.95;77.98;;
74260;Laerm;62630;55.874;37.516;2022-09-09T15:06:42;63.66;56.09;74.30;;
74260;Laerm;62630;55.874;37.516;2022-09-09T15:09:12;64.38;56.05;71.92;;
74260;Laerm;62630;55.874;37.516;2022-09-09T15:11:38;65.84;55.16;76.18;;
74260;Laerm;62630;55.874;37.516;2022-09-09T15:14:09;65.53;55.03;78.62;;
74260;Laerm;62630;55.874;37.516;2022-09-09T15:16:35;65.50;55.19;72.65;;
74260;Laerm;62630;55.874;37.516;2022-09-09T15:19:04;63.95;52.51;78.87;;
74260;Laerm;62630;55.874;37.516;2022-09-09T15:21:32;64.32;56.92;74.51;;
74260;Laerm;62630;55.874;37.516;2022-09-09T15:23:59;64.24;55.40;71.07;;
74260;Laerm;62630;55.874;37.516;2022-09-09T15:26:27;63.44;56.04;70.66;;
74260;Laerm;62630;55.874;37.516;2022-09-09T15:28:54;63.30;54.08;71.85;;
74260;Laerm;62630;55.874;37.516;2022-09-09T15:31:22;66.33;54.44;83.52;;
74260;Laerm;62630;55.874;37.516;2022-09-09T15:33:49;64.26;53.46;76.39;;
74260;Laerm;62630;55.874;37.516;2022-09-09T15:38:46;65.48;53.19;75.93;;
74260;Laerm;62630;55.874;37.516;2022-09-09T15:41:15;62.87;52.49;78.92;;
74260;Laerm;62630;55.874;37.516;2022-09-09T15:43:45;68.22;56.33;84.14;;
74260;Laerm;62630;55.874;37.516;2022-09-09T15:51:32;68.64;55.25;85.28;;
74260;Laerm;62630;55.874;37.516;2022-09-09T15:54:07;64.29;52.18;72.30;;
74260;Laerm;62630;55.874;37.516;2022-09-09T15:56:36;66.74;56.33;77.25;;
74260;Laerm;62630;55.874;37.516;2022-09-09T15:59:04;63.56;53.72;75.40;;
74260;Laerm;62630;55.874;37.516;2022-09-09T16:01:30;66.30;53.73;81.17;;
74260;Laerm;62630;55.874;37.516;2022-09-09T16:04:07;64.41;55.16;71.20;;